Darstellungsparameter: Aktuell verwendete Einstellungen:
Skalierung der Graphiken ... ?
xyx+y,   Skalierungsfaktor:      Skalierung: Modus: x, Faktor: 1
Darstellungszeitraum ... ?
Vom - - bis: - -   Zeitraum: 03.07.2022 - 04.07.2022
Min/Max/Avg-Anzeige ... ?
Zeige MMA aktuell
Zeige MMA Monat
Zeige MMA alles
Zeige --A aktuell
Zeige --A Monat
Zeige --A alles
Keine MMA-Anzeige
MMA:
Keine MMA-Graphiken
MMA-Basis: 03.07.2022 - 04.07.2022
Quicknavigation für Darstellung... ?
Tage:      1T, 2T, 3T, 5T -1T -2T -3T -5T +1T +2T +3T +5T
Wochen: 1W, 2W, 3W -1W -2W -3W +1W +2W +3W
Monate: 1M, 3M, 6M -1M -3M -6M +1M +3M +6M
Jahre:    1J, 3J, 5J, 10J -1J -3J -5J -10J +1J +3J +5J +10J
Nutze für die Darstellung ... ?
Originaldaten oder Mittelwerte auf ...
Stundenbasis Tagesbasis Wochenbasis
Monatsbasis Jahresbasis      Datenbasis: Original-Daten
Darstellen als:
Statistik (Auto) Statistik J:M      Darstellung:
Zur Graphik,    zurück zur Übersicht aller Sensoren.
 
Tabellarische Datenbersicht: ?
 
Sensor: Nr:Datum:Temp:Feuchte:Taupunkt:
Aussen-T/F 1 03-07-2022 02:00:00 14.8 C 83 % 11.94 C
2 03-07-2022 02:05:00 14.7 C 84 % 12.03 C
3 03-07-2022 02:10:00 14.7 C 84 % 12.03 C
4 03-07-2022 02:15:00 14.6 C 84 % 11.93 C
5 03-07-2022 02:20:00 14.6 C 85 % 12.11 C
6 03-07-2022 02:25:00 14.5 C 85 % 12.01 C
7 03-07-2022 02:30:00 14.5 C 85 % 12.01 C
8 03-07-2022 02:35:00 14.5 C 85 % 12.01 C
9 03-07-2022 02:40:00 14.4 C 86 % 12.09 C
10 03-07-2022 02:45:00 14.5 C 86 % 12.19 C
11 03-07-2022 02:50:00 14.4 C 86 % 12.09 C
12 03-07-2022 02:55:00 14.4 C 86 % 12.09 C
13 03-07-2022 03:00:00 14.4 C 86 % 12.09 C
14 03-07-2022 03:05:00 14.3 C 86 % 11.99 C
15 03-07-2022 03:10:00 14.3 C 86 % 11.99 C
16 03-07-2022 03:15:00 14.3 C 86 % 11.99 C
17 03-07-2022 03:20:00 14.2 C 86 % 11.89 C
18 03-07-2022 03:25:00 14.2 C 86 % 11.89 C
19 03-07-2022 03:30:00 14.2 C 86 % 11.89 C
20 03-07-2022 03:35:00 14.1 C 86 % 11.8 C
21 03-07-2022 03:40:00 14.1 C 86 % 11.8 C
22 03-07-2022 03:45:00 14 C 87 % 11.87 C
23 03-07-2022 03:50:00 13.9 C 87 % 11.77 C
24 03-07-2022 03:55:00 13.8 C 87 % 11.68 C
25 03-07-2022 04:00:00 13.8 C 87 % 11.68 C
Sensor: Nr:Datum:Temp:Feuchte:Taupunkt:
Aussen-T/F 26 03-07-2022 04:05:00 13.8 C 87 % 11.68 C
27 03-07-2022 04:10:00 13.7 C 87 % 11.58 C
28 03-07-2022 04:15:00 13.7 C 88 % 11.75 C
29 03-07-2022 04:20:00 13.6 C 88 % 11.65 C
30 03-07-2022 04:25:00 13.5 C 88 % 11.55 C
31 03-07-2022 04:30:00 13.4 C 88 % 11.45 C
32 03-07-2022 04:35:00 13.4 C 89 % 11.63 C
33 03-07-2022 04:40:00 13.4 C 89 % 11.63 C
34 03-07-2022 04:45:00 13.4 C 89 % 11.63 C
35 03-07-2022 04:50:00 13.4 C 89 % 11.63 C
36 03-07-2022 04:55:00 13.4 C 89 % 11.63 C
37 03-07-2022 05:00:00 13.4 C 89 % 11.63 C
38 03-07-2022 05:05:00 13.4 C 89 % 11.63 C
39 03-07-2022 05:10:00 13.4 C 89 % 11.63 C
40 03-07-2022 05:15:00 13.4 C 89 % 11.63 C
41 03-07-2022 05:20:00 13.3 C 89 % 11.53 C
42 03-07-2022 05:25:00 13.3 C 89 % 11.53 C
43 03-07-2022 05:30:00 13.2 C 89 % 11.43 C
44 03-07-2022 05:35:00 13.2 C 89 % 11.43 C
45 03-07-2022 05:40:00 13.1 C 89 % 11.33 C
46 03-07-2022 05:45:00 13 C 89 % 11.23 C
47 03-07-2022 05:50:00 12.9 C 90 % 11.3 C
48 03-07-2022 05:55:00 12.9 C 90 % 11.3 C
49 03-07-2022 06:00:00 12.9 C 90 % 11.3 C
50 03-07-2022 06:05:00 12.9 C 90 % 11.3 C
Sensor: Nr:Datum:Temp:Feuchte:Taupunkt:
Aussen-T/F 51 03-07-2022 06:10:00 12.9 C 90 % 11.3 C
52 03-07-2022 06:15:00 12.9 C 91 % 11.47 C
53 03-07-2022 06:20:00 12.9 C 91 % 11.47 C
54 03-07-2022 06:25:00 12.9 C 91 % 11.47 C
55 03-07-2022 06:30:00 12.9 C 91 % 11.47 C
56 03-07-2022 06:35:00 12.9 C 91 % 11.47 C
57 03-07-2022 06:40:00 12.9 C 91 % 11.47 C
58 03-07-2022 06:45:00 12.9 C 92 % 11.63 C
59 03-07-2022 06:50:00 13.1 C 92 % 11.83 C
60 03-07-2022 06:55:00 13.2 C 92 % 11.93 C
61 03-07-2022 07:00:00 13.3 C 92 % 12.03 C
62 03-07-2022 07:05:00 13.3 C 92 % 12.03 C
63 03-07-2022 07:10:00 13.3 C 92 % 12.03 C
64 03-07-2022 07:15:00 13.4 C 92 % 12.13 C
65 03-07-2022 07:20:00 13.6 C 92 % 12.33 C
66 03-07-2022 07:25:00 13.8 C 92 % 12.52 C
67 03-07-2022 07:30:00 13.8 C 92 % 12.52 C
68 03-07-2022 07:35:00 13.9 C 92 % 12.62 C
69 03-07-2022 07:40:00 13.9 C 92 % 12.62 C
70 03-07-2022 07:45:00 13.9 C 92 % 12.62 C
71 03-07-2022 07:50:00 13.9 C 91 % 12.46 C
72 03-07-2022 07:55:00 14 C 91 % 12.56 C
73 03-07-2022 08:00:00 14 C 91 % 12.56 C
74 03-07-2022 08:05:00 14.1 C 91 % 12.65 C
75 03-07-2022 08:10:00 14.1 C 92 % 12.82 C
Sensor: Nr:Datum:Temp:Feuchte:Taupunkt:
Aussen-T/F 76 03-07-2022 08:15:00 14.2 C 92 % 12.92 C
77 03-07-2022 08:20:00 14.2 C 92 % 12.92 C
78 03-07-2022 08:25:00 14.4 C 92 % 13.12 C
79 03-07-2022 08:30:00 14.5 C 92 % 13.22 C
80 03-07-2022 08:35:00 14.6 C 92 % 13.32 C
81 03-07-2022 08:40:00 14.7 C 92 % 13.41 C
82 03-07-2022 08:45:00 14.8 C 92 % 13.51 C
83 03-07-2022 08:50:00 15 C 92 % 13.71 C
84 03-07-2022 08:55:00 15.2 C 92 % 13.91 C
85 03-07-2022 09:00:00 15.4 C 91 % 13.94 C
86 03-07-2022 09:05:00 15.6 C 91 % 14.14 C
87 03-07-2022 09:10:00 15.9 C 91 % 14.43 C
88 03-07-2022 09:15:00 16.3 C 91 % 14.83 C
89 03-07-2022 09:20:00 16.6 C 89 % 14.78 C
90 03-07-2022 09:25:00 17.1 C 88 % 15.1 C
91 03-07-2022 09:30:00 17.4 C 87 % 15.21 C
92 03-07-2022 09:35:00 17.8 C 85 % 15.25 C
93 03-07-2022 09:40:00 18.2 C 84 % 15.45 C
94 03-07-2022 09:45:00 18.6 C 83 % 15.66 C
95 03-07-2022 09:50:00 18.8 C 81 % 15.47 C
96 03-07-2022 09:55:00 19 C 79 % 15.28 C
97 03-07-2022 10:00:00 19.3 C 79 % 15.57 C
98 03-07-2022 10:05:00 19.5 C 75 % 14.95 C
99 03-07-2022 10:10:00 19.9 C 72 % 14.7 C
100 03-07-2022 10:15:00 20.4 C 69 % 14.52 C
Sensor: Nr:Datum:Temp:Feuchte:Taupunkt:
Aussen-T/F 101 03-07-2022 10:20:00 20.9 C 69 % 15 C
102 03-07-2022 10:25:00 21.3 C 65 % 14.46 C
103 03-07-2022 10:30:00 21.7 C 66 % 15.07 C
104 03-07-2022 10:35:00 22.2 C 64 % 15.07 C
105 03-07-2022 10:40:00 22.6 C 62 % 14.95 C
106 03-07-2022 10:45:00 22.9 C 63 % 15.48 C
107 03-07-2022 10:50:00 23.3 C 62 % 15.61 C
108 03-07-2022 10:55:00 23.6 C 61 % 15.64 C
109 03-07-2022 11:00:00 23.7 C 60 % 15.48 C
110 03-07-2022 11:05:00 24 C 62 % 16.27 C
111 03-07-2022 11:10:00 24.2 C 59 % 15.68 C
112 03-07-2022 11:15:00 24.4 C 57 % 15.33 C
113 03-07-2022 11:20:00 24.8 C 57 % 15.7 C
114 03-07-2022 11:25:00 25.2 C 51 % 14.35 C
115 03-07-2022 11:30:00 25.4 C 51 % 14.53 C
116 03-07-2022 11:35:00 25.7 C 49 % 14.19 C
117 03-07-2022 11:40:00 25.9 C 49 % 14.37 C
118 03-07-2022 11:45:00 26.1 C 49 % 14.55 C
119 03-07-2022 11:50:00 26.3 C 46 % 13.76 C
120 03-07-2022 11:55:00 26.6 C 49 % 15.01 C
121 03-07-2022 12:00:00 26.9 C 45 % 13.96 C
122 03-07-2022 12:05:00 27.3 C 45 % 14.33 C
123 03-07-2022 12:10:00 27.7 C 44 % 14.34 C
124 03-07-2022 12:15:00 28 C 43 % 14.26 C
125 03-07-2022 12:20:00 27.9 C 41 % 13.43 C
Sensor: Nr:Datum:Temp:Feuchte:Taupunkt:
Aussen-T/F 126 03-07-2022 12:25:00 27.8 C 42 % 13.71 C
127 03-07-2022 12:30:00 27.4 C 44 % 14.07 C
128 03-07-2022 12:35:00 27 C 46 % 14.39 C
129 03-07-2022 12:40:00 26.7 C 47 % 14.45 C
130 03-07-2022 12:45:00 26.3 C 48 % 14.42 C
131 03-07-2022 12:50:00 26.2 C 57 % 17.01 C
132 03-07-2022 12:55:00 26.1 C 49 % 14.55 C
133 03-07-2022 13:00:00 26.2 C 58 % 17.28 C
134 03-07-2022 13:05:00 26.4 C 50 % 15.14 C
135 03-07-2022 13:10:00 26.8 C 46 % 14.21 C
136 03-07-2022 13:15:00 27.2 C 45 % 14.24 C
137 03-07-2022 13:20:00 27.4 C 47 % 15.09 C
138 03-07-2022 13:25:00 27.8 C 43 % 14.08 C
139 03-07-2022 13:30:00 28.3 C 42 % 14.16 C
140 03-07-2022 13:35:00 28.8 C 40 % 13.86 C
141 03-07-2022 13:40:00 29.1 C 40 % 14.12 C
142 03-07-2022 13:45:00 29.2 C 39 % 13.82 C
143 03-07-2022 13:50:00 29.2 C 37 % 13.02 C
144 03-07-2022 13:55:00 29.1 C 36 % 12.51 C
145 03-07-2022 14:00:00 29.3 C 37 % 13.1 C
146 03-07-2022 14:05:00 29.4 C 35 % 12.34 C
147 03-07-2022 14:10:00 29.5 C 34 % 11.99 C
148 03-07-2022 14:15:00 29.5 C 36 % 12.86 C
149 03-07-2022 14:20:00 29.4 C 35 % 12.34 C
150 03-07-2022 14:25:00 29.4 C 34 % 11.9 C
Sensor: Nr:Datum:Temp:Feuchte:Taupunkt:
Aussen-T/F 151 03-07-2022 14:30:00 29.4 C 35 % 12.34 C
152 03-07-2022 14:35:00 29.3 C 34 % 11.82 C
153 03-07-2022 14:40:00 29.5 C 36 % 12.86 C
154 03-07-2022 14:45:00 29.7 C 33 % 11.71 C
155 03-07-2022 14:50:00 29.8 C 34 % 12.25 C
156 03-07-2022 14:55:00 29.8 C 33 % 11.8 C
157 03-07-2022 15:00:00 29.9 C 34 % 12.34 C
158 03-07-2022 15:05:00 30.2 C 35 % 13.04 C
159 03-07-2022 15:10:00 30.4 C 33 % 12.32 C
160 03-07-2022 15:15:00 30.6 C 33 % 12.5 C
161 03-07-2022 15:20:00 30.6 C 32 % 12.03 C
162 03-07-2022 15:25:00 30.8 C 33 % 12.67 C
163 03-07-2022 15:30:00 31.1 C 33 % 12.93 C
164 03-07-2022 15:35:00 31.1 C 33 % 12.93 C
165 03-07-2022 15:40:00 30.8 C 33 % 12.67 C
166 03-07-2022 15:45:00 30.5 C 34 % 12.86 C
167 03-07-2022 15:50:00 30.4 C 34 % 12.78 C
168 03-07-2022 15:55:00 30.5 C 33 % 12.41 C
169 03-07-2022 16:00:00 30.1 C 34 % 12.51 C
170 03-07-2022 16:05:00 29.6 C 36 % 12.95 C
171 03-07-2022 16:10:00 29.7 C 36 % 13.04 C
172 03-07-2022 16:15:00 30.2 C 33 % 12.15 C
173 03-07-2022 16:20:00 30.8 C 33 % 12.67 C
174 03-07-2022 16:25:00 31.2 C 32 % 12.55 C
175 03-07-2022 16:30:00 31.4 C 32 % 12.72 C
Sensor: Nr:Datum:Temp:Feuchte:Taupunkt:
Aussen-T/F 176 03-07-2022 16:35:00 31.7 C 31 % 12.5 C
177 03-07-2022 16:40:00 31.3 C 30 % 11.65 C
178 03-07-2022 16:45:00 30.9 C 31 % 11.81 C
179 03-07-2022 16:50:00 30.2 C 32 % 11.68 C
180 03-07-2022 16:55:00 29.8 C 34 % 12.25 C
181 03-07-2022 17:00:00 29.6 C 36 % 12.95 C
182 03-07-2022 17:05:00 29.8 C 36 % 13.12 C
183 03-07-2022 17:10:00 30 C 34 % 12.43 C
184 03-07-2022 17:15:00 30 C 37 % 13.72 C
185 03-07-2022 17:20:00 29.9 C 41 % 15.22 C
186 03-07-2022 17:25:00 29.7 C 41 % 15.04 C
187 03-07-2022 17:30:00 29.1 C 41 % 14.51 C
188 03-07-2022 17:35:00 28.5 C 43 % 14.71 C
189 03-07-2022 17:40:00 28.4 C 44 % 14.97 C
190 03-07-2022 17:45:00 28.8 C 45 % 15.68 C
191 03-07-2022 17:50:00 29.1 C 44 % 15.6 C
192 03-07-2022 17:55:00 29.1 C 45 % 15.95 C
193 03-07-2022 18:00:00 29.2 C 43 % 15.33 C
194 03-07-2022 18:05:00 28.8 C 44 % 15.33 C
195 03-07-2022 18:10:00 28.2 C 45 % 15.14 C
196 03-07-2022 18:15:00 27.6 C 48 % 15.6 C
197 03-07-2022 18:20:00 27.4 C 47 % 15.09 C
198 03-07-2022 18:25:00 27.1 C 50 % 15.78 C
199 03-07-2022 18:30:00 26.6 C 51 % 15.63 C
200 03-07-2022 18:35:00 26.3 C 51 % 15.36 C
Sensor: Nr:Datum:Temp:Feuchte:Taupunkt:
Aussen-T/F 201 03-07-2022 18:40:00 26.4 C 53 % 16.05 C
202 03-07-2022 18:45:00 26.5 C 51 % 15.54 C
203 03-07-2022 18:50:00 26.6 C 50 % 15.32 C
204 03-07-2022 18:55:00 26.5 C 51 % 15.54 C
205 03-07-2022 19:00:00 26.4 C 51 % 15.45 C
206 03-07-2022 19:05:00 26.2 C 51 % 15.27 C
207 03-07-2022 19:10:00 25.9 C 51 % 14.99 C
208 03-07-2022 19:15:00 25.7 C 52 % 15.11 C
209 03-07-2022 19:20:00 25.7 C 53 % 15.4 C
210 03-07-2022 19:25:00 25.7 C 53 % 15.4 C
211 03-07-2022 19:30:00 25.8 C 53 % 15.5 C
212 03-07-2022 19:35:00 25.8 C 52 % 15.2 C
213 03-07-2022 19:40:00 25.7 C 52 % 15.11 C
214 03-07-2022 19:45:00 25.5 C 54 % 15.51 C
215 03-07-2022 19:50:00 25.3 C 53 % 15.03 C
216 03-07-2022 19:55:00 25.2 C 54 % 15.23 C
217 03-07-2022 20:00:00 25 C 54 % 15.05 C
218 03-07-2022 20:05:00 24.9 C 54 % 14.95 C
219 03-07-2022 20:10:00 24.9 C 54 % 14.95 C
220 03-07-2022 20:15:00 24.8 C 54 % 14.86 C
221 03-07-2022 20:20:00 24.6 C 55 % 14.96 C
222 03-07-2022 20:25:00 24.3 C 55 % 14.68 C
223 03-07-2022 20:30:00 24.2 C 56 % 14.87 C
224 03-07-2022 20:35:00 24.1 C 56 % 14.78 C
225 03-07-2022 20:40:00 23.9 C 56 % 14.59 C
Sensor: Nr:Datum:Temp:Feuchte:Taupunkt:
Aussen-T/F 226 03-07-2022 20:45:00 23.8 C 56 % 14.5 C
227 03-07-2022 20:50:00 23.6 C 56 % 14.31 C
228 03-07-2022 20:55:00 23.3 C 57 % 14.31 C
229 03-07-2022 21:00:00 23.1 C 57 % 14.12 C
230 03-07-2022 21:05:00 22.9 C 57 % 13.93 C
231 03-07-2022 21:10:00 22.7 C 57 % 13.75 C
232 03-07-2022 21:15:00 22.6 C 58 % 13.92 C
233 03-07-2022 21:20:00 22.5 C 58 % 13.83 C
234 03-07-2022 21:25:00 22.3 C 58 % 13.64 C
235 03-07-2022 21:30:00 22.3 C 58 % 13.64 C
236 03-07-2022 21:35:00 22.2 C 58 % 13.55 C
237 03-07-2022 21:40:00 22.1 C 60 % 13.98 C
238 03-07-2022 21:45:00 21.9 C 60 % 13.79 C
239 03-07-2022 21:50:00 21.8 C 61 % 13.95 C
240 03-07-2022 21:55:00 21.6 C 61 % 13.76 C
241 03-07-2022 22:00:00 21.5 C 63 % 14.16 C
242 03-07-2022 22:05:00 21.4 C 63 % 14.07 C
243 03-07-2022 22:10:00 21.2 C 61 % 13.38 C
244 03-07-2022 22:15:00 21.1 C 64 % 14.03 C
245 03-07-2022 22:20:00 20.9 C 62 % 13.35 C
246 03-07-2022 22:25:00 20.8 C 62 % 13.26 C
247 03-07-2022 22:30:00 20.8 C 63 % 13.5 C
248 03-07-2022 22:35:00 20.8 C 65 % 13.98 C
249 03-07-2022 22:40:00 20.7 C 63 % 13.41 C
250 03-07-2022 22:45:00 20.7 C 61 % 12.91 C
Sensor: Nr:Datum:Temp:Feuchte:Taupunkt:
Aussen-T/F 251 03-07-2022 22:50:00 20.6 C 61 % 12.82 C
252 03-07-2022 22:55:00 20.6 C 61 % 12.82 C
253 03-07-2022 23:00:00 20.6 C 64 % 13.55 C
254 03-07-2022 23:05:00 20.7 C 64 % 13.65 C
255 03-07-2022 23:10:00 20.5 C 62 % 12.97 C
256 03-07-2022 23:15:00 20.4 C 61 % 12.63 C
257 03-07-2022 23:20:00 20.3 C 61 % 12.54 C
258 03-07-2022 23:25:00 20.2 C 62 % 12.69 C
259 03-07-2022 23:30:00 20.2 C 63 % 12.94 C
260 03-07-2022 23:35:00 20.1 C 63 % 12.84 C
261 03-07-2022 23:40:00 19.9 C 62 % 12.41 C
262 03-07-2022 23:45:00 19.9 C 64 % 12.89 C
263 03-07-2022 23:50:00 19.8 C 64 % 12.8 C
264 03-07-2022 23:55:00 19.7 C 64 % 12.7 C
265 04-07-2022 00:00:00 19.6 C 66 % 13.08 C
266 04-07-2022 00:05:00 19.4 C 64 % 12.42 C
267 04-07-2022 00:10:00 19.3 C 65 % 12.56 C
268 04-07-2022 00:15:00 19.3 C 68 % 13.25 C
269 04-07-2022 00:20:00 19.2 C 67 % 12.93 C
270 04-07-2022 00:25:00 18.9 C 68 % 12.87 C
271 04-07-2022 00:30:00 18.7 C 68 % 12.68 C
272 04-07-2022 00:35:00 18.5 C 69 % 12.71 C
273 04-07-2022 00:40:00 18.3 C 69 % 12.52 C
274 04-07-2022 00:45:00 18.3 C 69 % 12.52 C
275 04-07-2022 00:50:00 18.2 C 71 % 12.86 C
Sensor: Nr:Datum:Temp:Feuchte:Taupunkt:
Aussen-T/F 276 04-07-2022 00:55:00 18.1 C 71 % 12.76 C

Legende:
   Min
   Max


Maximal/Minimal-Werte vom 03.07.2022 - 04.07.2022

Sensor Min Max Avg
Temp
(Aussen-T/F)
12.9 °C
03-07-2022  05:50:00
31.7 °C
03-07-2022  16:35:00
21.52 °C
Feuchte
(Aussen-T/F)
30 %
03-07-2022  16:40:00
92 %
03-07-2022  06:45:00
63.88 %
Taupunkt
(Aussen-T/F)
11.23 C
03-07-2022  05:45:00
17.28 C
03-07-2022  13:00:00
13.34 C

Die Daten stammen von einer Davis Vantage Pro 2 Wetter-Station und werden unter Linux mit der Software wview2wettercgi und aufbereitet. Alle Angaben erfolgen ohne Gewähr für ihre Vollständigkeit oder Richtigkeit.
Kontakt: Rainer Krienke krienke@uni-koblenz.de . Meine Webseiten an der Uni Koblenz oder privat.
Version: $Revision: 0.78 $